Track Сидоров Степан

Time Latitude Longitude Accuracy (66% radius in meters) Altitude (meters) Speed (km/hour) Bearing (degrees) Battery (%) GPS flag
04:17:22 51.898987 107.658347 7.4000000953674 592.9 0 0 89 1 delete
04:17:15 51.899028 107.658507 7.5 621.1 1.3943824768066 113.23999786377 89 1 delete
04:17:13 51.899152 107.658553 7.5 634.5 2.3301475048065 160.92999267578 89 1 delete
04:17:10 51.899265 107.658580 7.5 640.1 2.7326602935791 179.25999450684 89 1 delete
04:17:04 51.899353 107.658625 7.5 652.2 1.8334405422211 168.05000305176 89 1 delete
04:16:55 51.899452 107.658675 7.5 664.9 1.7469671964645 186.58000183105 89 1 delete
04:16:45 51.899522 107.658578 7.5 680 0 0 89 1 delete
04:16:39 51.899547 107.658432 7.5 683.5 0 0 89 1 delete
04:16:32 51.899538 107.658282 7.4000000953674 688.8 0.80039304494858 86.440002441406 89 1 delete
04:16:24 51.899502 107.658133 7.4000000953674 692.8 1.2826877832413 49.380001068115 89 1 delete
04:16:15 51.899450 107.658003 7.4000000953674 698.3 0 0 89 1 delete
04:16:06 51.899437 107.657852 7.4000000953674 692.1 0 0 89 1 delete
04:15:57 51.899587 107.657848 7.5 686.6 0.48589777946472 158.21000671387 89 1 delete
04:15:52 51.899683 107.657852 7.5 682.4 1.0613572597504 152.14999389648 89 1 delete
04:15:47 51.899788 107.657823 7.5 678.6 1.0546658039093 152.96000671387 89 1 delete
04:15:42 51.899877 107.657760 7.5 673.7 1.4968122243881 174.07000732422 89 1 delete
04:15:38 51.899975 107.657710 7.5 668.2 1.6316694021225 157.61999511719 89 1 delete
04:15:34 51.900083 107.657678 7.5 665.3 2.2374975681305 166.67999267578 89 1 delete
04:15:30 51.900203 107.657655 7.5 660.4 2.3625750541687 171.75999450684 89 1 delete
04:15:26 51.900305 107.657615 7.5 657 2.1726424694061 173.77000427246 89 1 delete
04:15:22 51.900413 107.657595 7.4000000953674 657.6 2.3939731121063 165.89999389648 89 1 delete
04:15:06 51.900510 107.657578 7.4000000953674 677.4 0.58009195327759 204.80999755859 89 1 delete
04:15:02 51.900588 107.657700 7.4000000953674 688.5 0.94502997398376 174.58999633789 89 1 delete
04:14:53 51.900698 107.657710 7.5 696 2.9982569217682 164.7799987793 89 1 delete
04:14:31 51.900792 107.657777 7.5 685.2 0.51832526922226 254.11999511719 89 1 delete
04:14:21 51.900790 107.657923 7.5 684.6 1.1745960712433 251.94000244141 89 1 delete
04:14:12 51.900823 107.658077 7.4000000953674 687.9 1.1128294467926 253.19999694824 89 1 delete
04:14:04 51.900855 107.658225 7.4000000953674 691.1 1.2173180580139 243.39999389648 89 1 delete
04:13:58 51.900915 107.658337 7.4000000953674 695.7 0.80039304494858 177.25 89 1 delete
04:13:49 51.901005 107.658403 7.4000000953674 696.4 1.1313594579697 186.08000183105 89 1 delete
04:13:42 51.901040 107.658550 7.5 692 2.0547711849213 251.03999328613 89 1 delete
04:13:38 51.901085 107.658687 7.5 691.2 1.4803410768509 266.55999755859 89 1 delete
04:13:30 51.901118 107.658847 7.4000000953674 692.3 1.5122538805008 254.07000732422 89 1 delete
04:13:23 51.901207 107.658928 7.4000000953674 691.6 1.676450252533 195.80999755859 89 1 delete
04:13:19 51.901303 107.658913 7.4000000953674 691.6 2.5453014373779 161.52000427246 89 1 delete
04:13:14 51.901413 107.658898 7.4000000953674 691.4 2.0599184036255 155.80000305176 89 1 delete
04:13:06 51.901465 107.659033 7.5 684.5 1.2667313814163 223.61999511719 89 1 delete
04:13:00 51.901468 107.659188 7.5 690.8 1.6543172597885 262.44000244141 89 1 delete
04:12:56 51.901490 107.659330 7.5 695.4 2.3625750541687 264.48001098633 89 1 delete
04:12:52 51.901497 107.659512 7.5 696.3 1.540563583374 291.54000854492 89 1 delete
04:12:46 51.901480 107.659665 7.5 699.9 1.2219505310059 314.48999023438 89 1 delete
04:12:40 51.901422 107.659785 7.5 700.4 1.3073943853378 327.42999267578 89 1 delete
04:12:32 51.901340 107.659890 7.5 701 0 0 89 1 delete
04:12:18 51.901260 107.659970 7.4000000953674 699 0.50494247674942 15.859999656677 89 1 delete
04:12:07 51.901180 107.659895 7.4000000953674 698.7 0.75767111778259 4 89 1 delete
04:11:52 51.901088 107.659858 7.4000000953674 697 1.0716516971588 353.92001342773 89 1 delete
04:11:43 51.900988 107.659857 7.3000001907349 695.7 1.282173037529 2.710000038147 89 1 delete
04:11:24 51.900888 107.659832 7.4000000953674 691.5 0.52295780181885 5.9800000190735 89 1 delete
04:11:14 51.900797 107.659823 7.4000000953674 687 0.96510416269302 358.29000854492 89 1 delete
04:11:05 51.900702 107.659828 7.4000000953674 682.9 0.95892751216888 350.76998901367 89 1 delete